Time;durP1;ratioP1;P1;durP2;ratioP2;P2;SDS_P1;SDS_P2;PMS_P1;PMS_P2;Temp;Humidity;BMP_temperature;BMP_pressure;BME280_temperature;BME280_humidity;BME280_pressure;Samples;Min_cycle;Max_cycle;Signal;HPM_P1;HPM_P2
2021/12/25 00:01:28;;;;;;;6.73;2.67;;;-0.90;99.90;;;;;;8290966;28;20203;-89
2021/12/25 00:05:29;;;;;;;4.37;2.13;;;-1.00;99.90;;;;;;8304742;28;20185;-88
2021/12/25 00:09:30;;;;;;;3.37;2.27;;;-1.00;99.90;;;;;;8314089;28;20198;-87
2021/12/25 00:13:31;;;;;;;2.97;1.80;;;-1.10;99.90;;;;;;8308566;28;20283;-89
2021/12/25 00:17:33;;;;;;;3.00;2.20;;;-1.10;99.90;;;;;;8314181;28;20184;-93
2021/12/25 00:21:34;;;;;;;2.77;2.17;;;-1.20;99.90;;;;;;8326883;28;20216;-89
2021/12/25 00:25:40;;;;;;;5.70;3.60;;;-1.20;99.90;;;;;;8335302;28;20192;-92
2021/12/25 00:37:47;;;;;;;3.63;2.60;;;-1.10;99.90;;;;;;8337931;28;20202;-88
2021/12/25 00:41:47;;;;;;;5.23;2.50;;;-1.20;99.90;;;;;;8312866;28;20212;-90
2021/12/25 00:45:51;;;;;;;4.30;2.40;;;-1.30;99.90;;;;;;8313899;28;20213;-92
2021/12/25 00:49:52;;;;;;;4.63;2.33;;;-1.30;99.90;;;;;;8320201;28;20201;-90
2021/12/25 00:53:53;;;;;;;6.50;3.70;;;-1.40;99.90;;;;;;8308492;28;20226;-89
2021/12/25 00:57:54;;;;;;;3.53;2.27;;;-1.50;99.90;;;;;;8316839;28;20203;-89
2021/12/25 01:01:58;;;;;;;2.93;1.70;;;-1.60;99.90;;;;;;8327330;28;20293;-89
2021/12/25 01:05:59;;;;;;;4.33;1.70;;;-1.60;99.90;;;;;;8346436;28;20229;-89
2021/12/25 01:10:06;;;;;;;4.57;1.60;;;-1.70;99.90;;;;;;8314749;28;20191;-89
2021/12/25 01:14:23;;;;;;;3.83;1.70;;;-1.70;99.90;;;;;;8315985;28;20181;-90
2021/12/25 01:23:02;;;;;;;5.07;2.80;;;-1.80;99.90;;;;;;8316546;28;20250;-88
2021/12/25 01:39:28;;;;;;;7.53;3.17;;;-2.40;99.90;;;;;;8323853;28;20267;-89
2021/12/25 01:47:53;;;;;;;9.33;3.63;;;-2.80;99.90;;;;;;8339268;28;20259;-89
2021/12/25 01:51:54;;;;;;;18.77;6.37;;;-2.90;99.90;;;;;;8308661;28;20574;-88
2021/12/25 01:55:57;;;;;;;21.33;6.97;;;-2.90;99.90;;;;;;8320655;28;20224;-87
2021/12/25 02:00:02;;;;;;;8.67;2.33;;;-3.00;99.90;;;;;;8315198;28;20190;-87
2021/12/25 02:04:03;;;;;;;3.40;1.43;;;-3.10;99.90;;;;;;8317690;28;20273;-90
2021/12/25 02:08:05;;;;;;;9.77;2.93;;;-3.20;99.90;;;;;;8312794;28;20190;-88
2021/12/25 02:12:10;;;;;;;5.03;2.80;;;-3.30;99.90;;;;;;8327554;28;20229;-88
2021/12/25 02:16:15;;;;;;;1.60;0.80;;;-3.30;99.90;;;;;;8315850;28;20189;-87
2021/12/25 02:20:22;;;;;;;3.60;1.40;;;-3.40;99.90;;;;;;8329113;28;20205;-88
2021/12/25 02:24:23;;;;;;;2.20;1.10;;;-3.40;99.90;;;;;;8320779;28;20178;-88
2021/12/25 02:28:25;;;;;;;7.70;2.00;;;-3.50;99.90;;;;;;8312972;28;20191;-88
2021/12/25 02:32:26;;;;;;;4.07;1.47;;;-3.50;99.90;;;;;;8322145;28;20194;-88
2021/12/25 02:36:27;;;;;;;4.20;2.10;;;-3.60;99.90;;;;;;8323627;28;20208;-86
2021/12/25 02:40:28;;;;;;;7.10;4.13;;;-3.60;99.90;;;;;;8320498;28;20225;-88
2021/12/25 02:44:32;;;;;;;6.83;3.50;;;-3.60;99.90;;;;;;8311722;28;20178;-88
2021/12/25 02:48:37;;;;;;;3.60;2.07;;;-3.60;99.90;;;;;;8318221;28;20182;-88
2021/12/25 02:52:43;;;;;;;3.47;2.10;;;-3.60;99.90;;;;;;8309505;28;20269;-88
2021/12/25 02:56:44;;;;;;;3.47;1.90;;;-3.70;99.90;;;;;;8311430;28;20195;-86
2021/12/25 03:00:57;;;;;;;2.27;1.47;;;-3.80;99.90;;;;;;8311706;28;20205;-87
2021/12/25 03:04:58;;;;;;;1.83;0.70;;;-3.90;99.90;;;;;;8330446;28;20174;-85
2021/12/25 03:08:59;;;;;;;4.57;1.30;;;-4.00;99.90;;;;;;8334017;28;20264;-87
2021/12/25 03:17:11;;;;;;;7.37;3.97;;;-4.20;99.90;;;;;;8335331;28;20193;-86
2021/12/25 03:21:13;;;;;;;33.47;17.17;;;-4.30;99.90;;;;;;8316403;28;20253;-87
2021/12/25 03:25:17;;;;;;;6.90;2.80;;;-4.40;99.90;;;;;;8326016;28;20186;-87
2021/12/25 03:29:18;;;;;;;4.83;3.10;;;-4.50;99.90;;;;;;8314631;28;20191;-87
2021/12/25 03:33:20;;;;;;;12.37;8.73;;;-4.60;99.90;;;;;;8323541;28;20226;-87
2021/12/25 03:37:21;;;;;;;4.43;3.37;;;-4.70;99.90;;;;;;8306706;28;20191;-88
2021/12/25 03:41:22;;;;;;;4.57;2.23;;;-4.80;99.90;;;;;;8318101;28;20240;-86
2021/12/25 03:45:24;;;;;;;2.23;1.50;;;-4.90;99.90;;;;;;8311046;28;20195;-87
2021/12/25 03:53:06;;;;;;;4.23;1.90;;;-5.00;99.90;;;;;;8331934;28;20187;-88
2021/12/25 03:58:02;;;;;;;2.87;1.40;;;-5.20;99.90;;;;;;8325848;28;20182;-86
2021/12/25 04:02:12;;;;;;;4.47;1.60;;;-5.10;99.90;;;;;;8317755;28;20225;-89
2021/12/25 04:06:13;;;;;;;2.63;2.00;;;-5.10;99.90;;;;;;8316367;28;20190;-88
2021/12/25 04:10:14;;;;;;;5.33;2.17;;;-5.10;99.90;;;;;;8316819;28;20197;-89
2021/12/25 04:14:15;;;;;;;3.00;1.83;;;-5.30;99.90;;;;;;8312323;28;20264;-87
2021/12/25 04:18:16;;;;;;;4.97;1.83;;;-5.50;99.90;;;;;;8312938;28;20246;-86
2021/12/25 04:22:25;;;;;;;4.80;1.40;;;-5.60;99.90;;;;;;8300378;28;20214;-85
2021/12/25 04:26:26;;;;;;;3.00;1.40;;;-5.60;99.90;;;;;;8321198;28;20292;-86
2021/12/25 05:04:39;;;;;;;2.53;1.53;;;-6.30;99.90;;;;;;8330356;28;20221;-87
2021/12/25 05:08:40;;;;;;;5.60;2.33;;;-6.40;99.90;;;;;;8314272;28;20221;-86
2021/12/25 05:12:41;;;;;;;5.27;3.30;;;-6.40;99.90;;;;;;8310025;28;20238;-87
2021/12/25 05:16:42;;;;;;;5.67;3.07;;;-6.50;99.90;;;;;;8323135;28;20215;-87
2021/12/25 05:20:43;;;;;;;4.37;2.47;;;-6.60;99.90;;;;;;8312144;28;20210;-87
2021/12/25 05:24:46;;;;;;;4.10;2.50;;;-6.50;99.90;;;;;;8306844;28;20184;-87
2021/12/25 05:28:57;;;;;;;6.60;3.00;;;-6.50;99.90;;;;;;8314523;28;20293;-89
2021/12/25 05:32:58;;;;;;;5.07;2.57;;;-6.60;99.90;;;;;;8308591;28;20186;-85
2021/12/25 05:36:59;;;;;;;6.70;4.03;;;-6.70;99.90;;;;;;8311387;28;20217;-87
2021/12/25 05:41:01;;;;;;;6.70;4.10;;;-6.80;99.90;;;;;;8317817;28;20271;-86
2021/12/25 05:45:02;;;;;;;6.53;3.03;;;-6.90;99.90;;;;;;8309923;28;20234;-86
2021/12/25 05:49:03;;;;;;;3.40;2.03;;;-7.00;99.90;;;;;;8318643;28;20217;-88
2021/12/25 05:53:05;;;;;;;3.77;1.50;;;-7.00;99.90;;;;;;8302002;28;20233;-89
2021/12/25 05:57:06;;;;;;;3.10;1.53;;;-7.10;99.90;;;;;;8335425;28;20187;-87
2021/12/25 06:01:07;;;;;;;3.23;1.57;;;-7.10;99.90;;;;;;8312116;28;20358;-87
2021/12/25 06:05:08;;;;;;;5.50;2.10;;;-7.10;99.90;;;;;;8307417;28;20180;-84
2021/12/25 06:09:09;;;;;;;6.30;3.90;;;-7.20;99.90;;;;;;8320398;28;20231;-88
2021/12/25 06:13:15;;;;;;;11.97;3.37;;;-7.20;99.90;;;;;;8309474;28;20255;-87
2021/12/25 06:17:17;;;;;;;8.30;2.80;;;-7.20;99.90;;;;;;8308458;28;20207;-86
2021/12/25 06:21:17;;;;;;;3.93;2.20;;;-7.20;99.90;;;;;;8331479;28;20209;-87
2021/12/25 06:25:18;;;;;;;3.00;1.67;;;-7.40;99.90;;;;;;8307855;28;20194;-89
2021/12/25 06:29:20;;;;;;;4.23;1.17;;;-7.50;99.90;;;;;;8322341;28;20191;-87
2021/12/25 06:33:23;;;;;;;2.00;1.30;;;-7.60;99.90;;;;;;8322737;28;20191;-87
2021/12/25 06:37:25;;;;;;;2.77;1.27;;;-7.70;99.90;;;;;;8308040;28;20183;-85
2021/12/25 06:41:28;;;;;;;3.37;1.17;;;-7.70;99.90;;;;;;8319050;28;20226;-87
2021/12/25 06:45:29;;;;;;;2.37;1.20;;;-7.80;99.90;;;;;;8308578;28;20182;-86
2021/12/25 06:49:39;;;;;;;2.00;1.30;;;-7.90;99.90;;;;;;8327103;28;20244;-87
2021/12/25 06:53:40;;;;;;;1.33;1.00;;;-8.00;99.90;;;;;;8328481;28;20206;-88
2021/12/25 06:57:53;;;;;;;1.47;1.03;;;-8.00;99.90;;;;;;8318130;28;20182;-90
2021/12/25 07:01:53;;;;;;;4.10;1.53;;;-8.00;99.90;;;;;;8308361;28;20214;-87
2021/12/25 07:05:54;;;;;;;3.47;1.83;;;-8.00;99.90;;;;;;8308478;28;20183;-86
2021/12/25 07:09:55;;;;;;;3.00;1.47;;;-8.00;99.90;;;;;;8309176;28;20210;-87
2021/12/25 07:13:59;;;;;;;2.73;1.30;;;-8.10;99.90;;;;;;8306266;28;20202;-89
2021/12/25 07:18:00;;;;;;;1.87;1.10;;;-8.10;99.90;;;;;;8303507;28;20186;-86
2021/12/25 07:22:04;;;;;;;2.03;1.10;;;-8.10;99.90;;;;;;8306478;28;20206;-87
2021/12/25 07:26:06;;;;;;;2.90;1.67;;;-8.10;99.90;;;;;;8311984;28;20276;-87
2021/12/25 07:30:08;;;;;;;4.57;1.80;;;-8.10;99.90;;;;;;8308190;28;20210;-86
2021/12/25 07:34:11;;;;;;;4.20;1.50;;;-8.10;99.90;;;;;;8306103;28;20185;-78
2021/12/25 07:38:12;;;;;;;4.33;2.17;;;-8.10;99.90;;;;;;8313861;28;20187;-80
2021/12/25 07:42:14;;;;;;;4.03;2.13;;;-8.00;99.90;;;;;;8311863;28;20231;-80
2021/12/25 07:46:15;;;;;;;15.50;6.53;;;-8.00;99.90;;;;;;8311289;28;20182;-78
2021/12/25 07:50:16;;;;;;;9.80;4.90;;;-7.90;99.90;;;;;;8332586;28;20194;-79
2021/12/25 07:54:17;;;;;;;7.77;2.60;;;-7.80;99.90;;;;;;8319679;28;20419;-78
2021/12/25 07:58:18;;;;;;;6.73;2.70;;;-7.80;99.90;;;;;;8326510;28;20178;-80
2021/12/25 08:02:21;;;;;;;5.87;2.73;;;-7.80;99.90;;;;;;8322349;28;20242;-78
2021/12/25 08:06:22;;;;;;;5.80;2.70;;;-7.70;99.90;;;;;;8308419;28;20187;-79
2021/12/25 08:10:23;;;;;;;9.97;3.83;;;-7.60;99.90;;;;;;8288047;28;20230;-78
2021/12/25 08:14:25;;;;;;;17.97;7.90;;;-7.40;99.90;;;;;;8315638;28;20182;-80
2021/12/25 08:18:26;;;;;;;12.17;6.43;;;-7.30;99.90;;;;;;8311073;28;20192;-80
2021/12/25 08:22:27;;;;;;;9.50;4.87;;;-7.10;99.90;;;;;;8311031;28;20221;-78
2021/12/25 08:26:28;;;;;;;14.73;4.77;;;-6.90;99.90;;;;;;8298860;28;20267;-80
2021/12/25 08:30:29;;;;;;;14.50;7.27;;;-6.70;99.90;;;;;;8332032;28;20194;-77
2021/12/25 08:34:30;;;;;;;14.10;7.43;;;-6.50;99.90;;;;;;8308408;28;20195;-77
2021/12/25 08:38:31;;;;;;;17.33;9.17;;;-6.40;99.90;;;;;;8325881;28;20215;-78
2021/12/25 08:42:32;;;;;;;28.13;13.17;;;-6.20;99.90;;;;;;8333647;28;20260;-79
2021/12/25 08:46:55;;;;;;;50.13;24.07;;;-6.10;99.90;;;;;;8314038;28;20246;-79
2021/12/25 08:50:59;;;;;;;49.20;23.13;;;-5.80;99.90;;;;;;8313090;28;20200;-80
2021/12/25 08:55:01;;;;;;;55.37;24.53;;;-5.60;99.90;;;;;;8325474;28;20330;-79
2021/12/25 08:59:02;;;;;;;63.23;27.23;;;-5.40;99.90;;;;;;8328045;28;20212;-79
2021/12/25 09:03:03;;;;;;;75.53;31.70;;;-5.30;99.90;;;;;;8306931;28;20212;-80
2021/12/25 09:07:06;;;;;;;114.37;46.87;;;-5.30;99.90;;;;;;8315327;28;20186;-80
2021/12/25 09:11:07;;;;;;;89.57;39.47;;;-5.20;99.90;;;;;;8312223;28;20206;-79
2021/12/25 09:15:10;;;;;;;44.23;16.93;;;-5.00;99.90;;;;;;8316319;28;20235;-80
2021/12/25 09:19:10;;;;;;;24.60;12.03;;;-4.70;99.90;;;;;;8293899;28;20221;-79
2021/12/25 09:23:12;;;;;;;21.87;10.57;;;-4.60;99.90;;;;;;8305051;28;20210;-79
2021/12/25 09:27:13;;;;;;;27.87;10.43;;;-4.50;99.90;;;;;;8331682;28;20174;-78
2021/12/25 09:31:15;;;;;;;26.10;10.30;;;-4.30;99.90;;;;;;8316924;28;20186;-78
2021/12/25 09:35:16;;;;;;;21.03;7.13;;;-4.20;99.90;;;;;;8307245;28;20194;-80
2021/12/25 09:39:18;;;;;;;14.47;7.40;;;-4.00;99.90;;;;;;8305764;28;20213;-79
2021/12/25 09:43:19;;;;;;;32.40;11.87;;;-3.90;99.90;;;;;;8316335;28;20240;-78
2021/12/25 09:47:21;;;;;;;34.37;14.43;;;-3.80;99.90;;;;;;8309409;28;20187;-79
2021/12/25 09:51:22;;;;;;;21.37;9.90;;;-3.80;99.90;;;;;;8313473;28;20196;-80
2021/12/25 09:55:23;;;;;;;31.70;13.70;;;-3.80;99.90;;;;;;8299670;28;20216;-79
2021/12/25 09:59:25;;;;;;;36.07;16.60;;;-3.90;99.90;;;;;;8301946;28;20235;-78
2021/12/25 10:03:43;;;;;;;23.00;9.03;;;-4.00;99.90;;;;;;8315327;28;20245;-78
2021/12/25 10:07:44;;;;;;;54.47;18.73;;;-4.00;99.90;;;;;;8318266;28;20178;-79
2021/12/25 10:12:02;;;;;;;50.67;15.30;;;-3.90;99.90;;;;;;8317348;28;20209;-79
2021/12/25 10:16:22;;;;;;;34.97;13.30;;;-3.80;99.90;;;;;;8307328;28;20186;-80
2021/12/25 10:20:26;;;;;;;13.37;4.90;;;-3.50;99.90;;;;;;8327854;28;20214;-79
2021/12/25 10:24:28;;;;;;;10.33;4.83;;;-3.30;99.90;;;;;;8314491;28;20194;-79
2021/12/25 10:28:38;;;;;;;7.47;4.20;;;-3.20;99.90;;;;;;8316784;28;20221;-79
2021/12/25 10:32:39;;;;;;;66.43;17.83;;;-3.20;99.90;;;;;;8320386;28;20183;-79
2021/12/25 10:36:40;;;;;;;11.00;5.50;;;-3.30;99.90;;;;;;8321742;28;20187;-79
2021/12/25 10:40:41;;;;;;;19.33;7.53;;;-3.40;99.90;;;;;;8325111;28;20202;-80
2021/12/25 10:44:50;;;;;;;4.90;2.83;;;-3.40;99.90;;;;;;8320267;28;20178;-80
2021/12/25 10:48:51;;;;;;;5.10;2.70;;;-3.20;99.90;;;;;;8314342;28;20221;-79
2021/12/25 10:52:52;;;;;;;12.00;4.00;;;-3.00;99.90;;;;;;8312211;28;20434;-80
2021/12/25 10:56:53;;;;;;;14.13;6.53;;;-2.70;99.90;;;;;;8321443;28;20192;-81
2021/12/25 11:00:57;;;;;;;7.33;3.97;;;-2.60;99.90;;;;;;8309102;28;20217;-81
2021/12/25 11:04:58;;;;;;;5.87;3.60;;;-2.50;99.90;;;;;;8319850;28;20206;-80
2021/12/25 11:08:59;;;;;;;10.73;6.57;;;-2.40;99.90;;;;;;8333518;28;20179;-79
2021/12/25 11:13:00;;;;;;;11.83;4.10;;;-2.40;99.90;;;;;;8319538;28;20197;-79
2021/12/25 11:17:23;;;;;;;9.83;4.23;;;-2.30;99.90;;;;;;8333646;28;20261;-79
2021/12/25 11:21:25;;;;;;;27.77;12.67;;;-2.20;99.90;;;;;;8326610;28;20215;-80
2021/12/25 11:25:29;;;;;;;8.37;4.87;;;-2.10;99.90;;;;;;8310506;28;20270;-79
2021/12/25 11:29:33;;;;;;;13.53;3.87;;;-2.10;99.90;;;;;;8324382;28;20187;-80
2021/12/25 11:33:34;;;;;;;14.27;5.77;;;-2.20;99.90;;;;;;8328017;28;20265;-80
2021/12/25 11:37:35;;;;;;;11.00;4.90;;;-2.20;60.50;;;;;;8323306;28;20191;-80
2021/12/25 11:41:37;;;;;;;25.50;10.73;;;-2.10;1.00;;;;;;8338289;28;20285;-80
2021/12/25 11:45:41;;;;;;;12.10;6.23;;;-2.20;1.00;;;;;;8323413;28;20183;-80
2021/12/25 11:49:53;;;;;;;14.33;6.17;;;-2.20;99.90;;;;;;8321163;28;20180;-80
2021/12/25 12:02:38;;;;;;;18.27;8.03;;;-2.20;99.90;;;;;;8330788;28;20322;-80
2021/12/25 12:06:45;;;;;;;20.90;8.90;;;-2.30;59.40;;;;;;8310307;28;20190;-80
2021/12/25 12:10:46;;;;;;;13.90;6.77;;;-2.30;90.70;;;;;;8328885;28;20288;-81
2021/12/25 12:15:09;;;;;;;18.20;9.00;;;-2.30;99.90;;;;;;8315922;28;20184;-81
2021/12/25 12:19:41;;;;;;;18.33;8.70;;;-2.20;1.00;;;;;;8315464;28;20180;-81
2021/12/25 12:28:00;;;;;;;13.03;5.90;;;-2.10;99.90;;;;;;8346585;28;20171;-81
2021/12/25 12:32:03;;;;;;;12.57;5.87;;;-2.00;99.90;;;;;;8308352;28;20184;-80
2021/12/25 12:36:20;;;;;;;12.57;4.83;;;-2.00;99.90;;;;;;8324508;28;20179;-81
2021/12/25 12:40:25;;;;;;;27.73;11.03;;;-1.90;99.90;;;;;;8323510;28;20191;-81
2021/12/25 12:44:31;;;;;;;20.63;8.30;;;-2.00;99.90;;;;;;8337365;28;20203;-81
2021/12/25 12:48:32;;;;;;;15.93;5.20;;;-2.10;99.90;;;;;;8317126;28;20237;-81
2021/12/25 12:52:39;;;;;;;9.50;4.57;;;-2.10;99.90;;;;;;8309432;28;20184;-81
2021/12/25 12:57:03;;;;;;;11.47;5.43;;;-2.20;99.90;;;;;;8313325;28;20512;-80
2021/12/25 13:01:11;;;;;;;7.63;4.67;;;-2.40;99.90;;;;;;8317541;28;20211;-81
2021/12/25 13:05:14;;;;;;;9.17;4.27;;;-2.60;99.90;;;;;;8333010;28;20171;-81
2021/12/25 13:09:16;;;;;;;27.57;11.13;;;-2.80;99.90;;;;;;8333136;28;20192;-82
2021/12/25 13:13:20;;;;;;;14.47;6.80;;;-3.00;99.90;;;;;;8328774;28;20197;-82
2021/12/25 13:17:21;;;;;;;20.97;8.50;;;-3.30;99.90;;;;;;8304775;28;20182;-81
2021/12/25 13:21:25;;;;;;;37.53;15.23;;;-3.50;99.90;;;;;;8334925;28;20226;-81
2021/12/25 13:25:26;;;;;;;21.73;9.77;;;-3.60;99.90;;;;;;8313370;28;20178;-82
2021/12/25 13:29:27;;;;;;;20.53;8.63;;;-3.80;99.90;;;;;;8313511;28;20339;-82
2021/12/25 13:33:34;;;;;;;28.27;11.07;;;-3.90;99.90;;;;;;8320444;28;20198;-82
2021/12/25 13:37:35;;;;;;;31.83;16.20;;;-4.00;99.90;;;;;;8305258;28;20186;-81
2021/12/25 13:41:53;;;;;;;32.03;14.07;;;-4.00;99.90;;;;;;8305557;28;20351;-82
2021/12/25 13:45:56;;;;;;;48.07;18.73;;;-4.10;99.90;;;;;;8305768;28;20182;-81
2021/12/25 13:50:06;;;;;;;35.53;16.67;;;-4.10;99.90;;;;;;8304734;28;20185;-80
2021/12/25 13:54:06;;;;;;;26.87;13.73;;;-4.20;99.90;;;;;;8306146;28;20206;-83
2021/12/25 13:58:13;;;;;;;25.40;12.33;;;-4.20;99.90;;;;;;8339970;28;20492;-80
2021/12/25 14:02:15;;;;;;;18.20;7.50;;;-4.30;99.90;;;;;;8308233;28;20201;-81
2021/12/25 14:06:16;;;;;;;19.87;8.93;;;-4.30;99.90;;;;;;8309258;28;20201;-81
2021/12/25 14:10:21;;;;;;;36.13;14.03;;;-4.40;99.90;;;;;;8312148;28;20194;-81
2021/12/25 14:14:24;;;;;;;33.67;14.13;;;-4.50;99.90;;;;;;8327388;28;20287;-82
2021/12/25 14:18:38;;;;;;;38.07;15.23;;;-4.60;99.90;;;;;;8311586;28;20560;-81
2021/12/25 14:22:39;;;;;;;24.30;10.27;;;-4.80;99.90;;;;;;8320222;28;20197;-83
2021/12/25 14:26:40;;;;;;;47.23;19.07;;;-4.90;99.90;;;;;;8324858;28;20182;-82
2021/12/25 14:30:59;;;;;;;62.97;24.07;;;-5.10;99.90;;;;;;8313702;28;20182;-81
2021/12/25 14:35:17;;;;;;;25.20;12.60;;;-5.10;99.90;;;;;;8322160;28;20188;-81
2021/12/25 14:39:19;;;;;;;31.40;13.70;;;-5.20;99.90;;;;;;8313328;28;20187;-80
2021/12/25 14:43:31;;;;;;;28.50;11.80;;;-5.40;99.90;;;;;;8308054;28;20209;-80
2021/12/25 14:47:32;;;;;;;39.67;20.07;;;-5.50;99.90;;;;;;8326484;28;20192;-82
2021/12/25 14:51:38;;;;;;;46.00;22.67;;;-5.60;99.90;;;;;;8306921;28;20188;-79
2021/12/25 14:55:44;;;;;;;54.33;22.77;;;-5.70;99.90;;;;;;8295585;28;20267;-79
2021/12/25 14:59:44;;;;;;;52.60;22.90;;;-5.80;99.90;;;;;;8314229;28;20190;-80
2021/12/25 15:04:11;;;;;;;50.97;21.63;;;-6.00;99.90;;;;;;8327432;28;20321;-78
2021/12/25 15:08:36;;;;;;;41.50;21.07;;;-6.10;99.90;;;;;;8312338;28;20426;-79
2021/12/25 15:12:37;;;;;;;49.97;20.00;;;-6.30;99.90;;;;;;8317110;28;20221;-81
2021/12/25 15:16:43;;;;;;;38.97;15.00;;;-6.50;99.90;;;;;;8337724;28;20395;-80
2021/12/25 15:20:44;;;;;;;25.13;11.13;;;-6.70;99.90;;;;;;8311551;28;20338;-85
2021/12/25 15:25:01;;;;;;;21.90;9.00;;;-6.90;99.90;;;;;;8325551;28;20184;-86
2021/12/25 15:29:02;;;;;;;21.30;7.80;;;-7.10;99.90;;;;;;8315947;28;20210;-87
2021/12/25 15:33:11;;;;;;;15.37;6.93;;;-7.20;99.90;;;;;;8332712;28;20233;-89
2021/12/25 15:37:26;;;;;;;11.83;5.77;;;-7.40;99.90;;;;;;8314255;28;20212;-86
2021/12/25 15:41:27;;;;;;;11.77;5.40;;;-7.60;99.90;;;;;;8320615;28;20207;-91
2021/12/25 15:45:29;;;;;;;11.60;4.70;;;-7.70;99.90;;;;;;8311188;28;20285;-86
2021/12/25 15:49:30;;;;;;;8.93;4.37;;;-7.80;99.90;;;;;;8319892;28;20188;-87
2021/12/25 15:53:31;;;;;;;7.83;4.20;;;-8.00;99.90;;;;;;8319541;28;20207;-88
2021/12/25 15:57:35;;;;;;;9.17;3.97;;;-8.10;99.90;;;;;;8308018;28;20198;-91
2021/12/25 16:01:36;;;;;;;15.43;5.60;;;-8.20;99.90;;;;;;8317345;28;20273;-86
2021/12/25 16:05:38;;;;;;;10.67;5.07;;;-8.30;99.90;;;;;;8306992;28;20237;-87
2021/12/25 16:09:39;;;;;;;12.13;5.07;;;-8.30;99.90;;;;;;8310733;28;20191;-86
2021/12/25 16:13:40;;;;;;;10.40;4.00;;;-8.40;99.90;;;;;;8312291;28;20190;-81
2021/12/25 16:17:41;;;;;;;11.67;3.97;;;-8.50;99.90;;;;;;8312344;28;20324;-84
2021/12/25 16:21:44;;;;;;;9.93;4.33;;;-8.60;99.90;;;;;;8313438;28;20241;-83
2021/12/25 16:25:47;;;;;;;22.77;9.93;;;-8.70;99.90;;;;;;8316258;28;20205;-84
2021/12/25 16:29:48;;;;;;;19.43;13.80;;;-8.70;99.90;;;;;;8316084;28;20509;-85
2021/12/25 16:33:54;;;;;;;15.07;9.77;;;-8.70;99.90;;;;;;8318290;28;20265;-91
2021/12/25 16:37:55;;;;;;;10.57;6.47;;;-8.80;99.90;;;;;;8316302;28;20218;-83
2021/12/25 16:41:56;;;;;;;7.07;4.00;;;-8.80;99.90;;;;;;8326464;28;20202;-81
2021/12/25 16:46:01;;;;;;;13.82;7.70;;;-8.90;99.90;;;;;;8309910;28;20512;-83
2021/12/25 16:50:03;;;;;;;10.47;6.00;;;-8.90;99.90;;;;;;8318367;28;20258;-84
2021/12/25 16:54:04;;;;;;;11.87;4.23;;;-8.90;99.90;;;;;;8307132;28;20293;-77
2021/12/25 16:58:07;;;;;;;10.00;6.35;;;-8.80;99.90;;;;;;8315813;28;20453;-87
2021/12/25 17:02:09;;;;;;;11.00;4.63;;;-8.80;99.90;;;;;;8313890;28;20238;-89
2021/12/25 17:06:14;;;;;;;9.90;4.40;;;-8.90;99.90;;;;;;8312725;28;20174;-91
2021/12/25 17:10:15;;;;;;;27.37;11.83;;;-8.90;99.90;;;;;;8309399;28;20277;-88
2021/12/25 17:14:17;;;;;;;30.83;12.07;;;-9.00;99.90;;;;;;8322431;28;20229;-91
2021/12/25 17:18:18;;;;;;;12.63;6.23;;;-9.10;99.90;;;;;;8306670;28;20217;-89
2021/12/25 17:22:19;;;;;;;11.33;4.97;;;-9.20;99.90;;;;;;8314167;28;20178;-87
2021/12/25 17:26:20;;;;;;;6.97;3.70;;;-9.40;99.90;;;;;;8335160;28;20236;-87
2021/12/25 17:30:31;;;;;;;4.57;2.07;;;-9.50;99.90;;;;;;8314821;28;20201;-88
2021/12/25 17:34:32;;;;;;;5.43;2.77;;;-9.60;99.90;;;;;;8320596;28;20185;-86
2021/12/25 17:38:36;;;;;;;4.23;1.87;;;-9.60;99.90;;;;;;8311390;28;20190;-86
2021/12/25 17:42:43;;;;;;;4.43;2.27;;;-9.60;99.90;;;;;;8308347;28;20326;-87
2021/12/25 17:46:45;;;;;;;3.50;2.53;;;-9.70;99.90;;;;;;8317488;28;20178;-86
2021/12/25 17:50:47;;;;;;;4.40;2.40;;;-9.70;99.90;;;;;;8330471;28;20279;-89
2021/12/25 17:54:51;;;;;;;11.70;4.40;;;-9.80;99.90;;;;;;8307867;28;20206;-89
2021/12/25 17:58:52;;;;;;;9.50;3.83;;;-9.80;99.90;;;;;;8313487;28;20183;-89
2021/12/25 18:02:53;;;;;;;5.77;2.23;;;-9.80;99.90;;;;;;8310561;28;20249;-86
2021/12/25 18:06:54;;;;;;;3.23;1.80;;;-9.90;99.90;;;;;;8326494;28;20210;-86
2021/12/25 18:10:55;;;;;;;9.80;2.30;;;-9.90;99.90;;;;;;8324736;28;20194;-85
2021/12/25 18:14:59;;;;;;;3.60;1.83;;;-10.00;99.90;;;;;;8325679;28;20202;-86
2021/12/25 18:19:00;;;;;;;6.50;2.77;;;-10.10;99.90;;;;;;8313819;28;20232;-88
2021/12/25 18:23:11;;;;;;;9.37;3.50;;;-10.20;99.90;;;;;;8303485;28;20206;-85
2021/12/25 18:27:13;;;;;;;7.83;4.07;;;-10.20;99.90;;;;;;8337034;28;20186;-85
2021/12/25 18:31:16;;;;;;;7.63;3.60;;;-10.30;99.90;;;;;;8307314;28;20204;-88
2021/12/25 18:35:18;;;;;;;11.13;4.50;;;-10.30;99.90;;;;;;8316238;28;20194;-87
2021/12/25 18:39:19;;;;;;;11.97;5.13;;;-10.30;99.90;;;;;;8315985;28;20235;-88
2021/12/25 18:43:21;;;;;;;21.53;9.03;;;-10.40;99.90;;;;;;8318582;28;20198;-90
2021/12/25 18:47:23;;;;;;;36.90;14.63;;;-10.40;99.90;;;;;;8317911;28;20189;-90
2021/12/25 18:51:26;;;;;;;26.53;11.30;;;-10.50;99.90;;;;;;8314667;28;20220;-87
2021/12/25 18:55:28;;;;;;;38.63;11.80;;;-10.50;99.90;;;;;;8314838;28;20216;-84
2021/12/25 18:59:29;;;;;;;41.90;15.57;;;-10.60;99.90;;;;;;8334706;28;20223;-90
2021/12/25 19:03:35;;;;;;;45.33;16.07;;;-10.60;99.90;;;;;;8325470;28;20213;-87
2021/12/25 19:07:36;;;;;;;48.27;18.50;;;-10.60;99.90;;;;;;8319137;28;20239;-86
2021/12/25 19:11:37;;;;;;;50.27;19.60;;;-10.60;99.90;;;;;;8319645;28;20236;-88
2021/12/25 19:15:40;;;;;;;45.93;15.43;;;-10.70;99.90;;;;;;8314758;28;20259;-89
2021/12/25 19:19:41;;;;;;;43.10;15.77;;;-10.70;99.90;;;;;;8315206;28;20247;-89
2021/12/25 19:23:45;;;;;;;50.87;18.60;;;-10.80;99.90;;;;;;8320455;28;20308;-88
2021/12/25 19:27:46;;;;;;;44.57;17.23;;;-10.80;99.90;;;;;;8315497;28;20181;-88
2021/12/25 19:31:48;;;;;;;50.03;15.50;;;-10.80;99.90;;;;;;8316098;28;20240;-88
2021/12/25 19:35:52;;;;;;;48.70;15.03;;;-10.90;99.90;;;;;;8320411;28;20179;-89
2021/12/25 19:39:56;;;;;;;45.83;17.43;;;-10.90;99.90;;;;;;8333683;28;20216;-89
2021/12/25 19:44:00;;;;;;;48.27;16.73;;;-11.00;99.90;;;;;;8313608;28;20206;-89
2021/12/25 19:48:07;;;;;;;50.80;21.27;;;-11.00;99.90;;;;;;8318314;28;20180;-87
2021/12/25 19:52:15;;;;;;;52.07;20.00;;;-11.00;99.90;;;;;;8332720;28;20584;-87
2021/12/25 19:56:16;;;;;;;52.47;18.27;;;-11.00;99.90;;;;;;8323959;28;20263;-87
2021/12/25 20:00:21;;;;;;;63.67;21.43;;;-11.10;99.90;;;;;;8324018;28;20180;-88
2021/12/25 20:04:24;;;;;;;47.67;17.93;;;-11.10;99.90;;;;;;8331523;28;20303;-87
2021/12/25 20:08:51;;;;;;;48.00;16.40;;;-11.20;99.90;;;;;;8319598;28;20222;-90
2021/12/25 20:12:52;;;;;;;39.80;14.83;;;-11.20;99.90;;;;;;8328749;28;20204;-89
2021/12/25 20:16:56;;;;;;;30.63;13.40;;;-11.30;99.90;;;;;;8317924;28;20249;-90
2021/12/25 20:20:59;;;;;;;29.73;10.57;;;-11.30;99.90;;;;;;8317742;28;20190;-88
2021/12/25 20:25:20;;;;;;;32.23;11.73;;;-11.30;92.60;;;;;;8328586;28;20186;-90
2021/12/25 20:29:21;;;;;;;49.03;14.27;;;-11.40;66.10;;;;;;8333703;28;20197;-91
2021/12/25 20:33:22;;;;;;;46.73;13.97;;;-11.40;76.40;;;;;;8323725;28;20242;-88
2021/12/25 20:37:24;;;;;;;40.40;12.27;;;-11.50;58.90;;;;;;8319566;28;20286;-89
2021/12/25 20:41:25;;;;;;;28.37;12.07;;;-11.50;41.20;;;;;;8323810;28;20402;-89
2021/12/25 20:49:51;;;;;;;36.97;10.93;;;-11.60;99.90;;;;;;8354902;28;20262;-90
2021/12/25 20:53:53;;;;;;;37.53;12.13;;;-11.60;99.90;;;;;;8311365;28;20207;-90
2021/12/25 20:57:57;;;;;;;23.33;9.73;;;-11.60;99.90;;;;;;8309886;28;20179;-90
2021/12/25 21:01:58;;;;;;;29.13;12.40;;;-11.70;99.90;;;;;;8324477;28;20591;-90
2021/12/25 21:06:18;;;;;;;42.13;12.47;;;-11.70;99.90;;;;;;8320950;28;20230;-87
2021/12/25 21:10:29;;;;;;;30.30;10.20;;;-11.80;99.90;;;;;;8335975;28;20195;-90
2021/12/25 21:14:32;;;;;;;35.00;13.20;;;-11.80;99.90;;;;;;8328390;28;20308;-88
2021/12/25 21:18:36;;;;;;;25.10;9.40;;;-11.90;99.90;;;;;;8315461;28;20192;-90
2021/12/25 21:22:37;;;;;;;26.20;10.80;;;-11.90;99.90;;;;;;8314918;28;20203;-89
2021/12/25 21:26:44;;;;;;;28.40;10.13;;;-11.90;99.90;;;;;;8309032;28;20262;-88
2021/12/25 21:30:45;;;;;;;23.13;9.60;;;-11.90;99.90;;;;;;8322322;28;20176;-87
2021/12/25 21:34:52;;;;;;;21.53;9.60;;;-12.00;99.90;;;;;;8310272;28;20181;-89
2021/12/25 21:38:55;;;;;;;26.70;9.40;;;-12.00;99.90;;;;;;8331808;28;20282;-88
2021/12/25 21:42:57;;;;;;;18.23;7.70;;;-12.00;99.90;;;;;;8310741;28;20231;-88
2021/12/25 21:46:58;;;;;;;24.00;8.37;;;-12.00;99.90;;;;;;8306916;28;20183;-88
2021/12/25 21:50:59;;;;;;;26.27;10.70;;;-12.00;99.90;;;;;;8314253;28;20210;-89
2021/12/25 21:55:11;;;;;;;51.37;18.40;;;-12.10;99.90;;;;;;8308495;28;20213;-88
2021/12/25 21:59:12;;;;;;;43.47;17.97;;;-12.00;99.90;;;;;;8339413;28;20182;-89
2021/12/25 22:03:13;;;;;;;46.10;16.67;;;-12.00;99.90;;;;;;8310088;28;20224;-88
2021/12/25 22:07:26;;;;;;;36.67;14.80;;;-12.10;99.90;;;;;;8312189;28;20185;-88
2021/12/25 22:11:29;;;;;;;60.40;18.33;;;-12.10;99.90;;;;;;8314039;28;20219;-88
2021/12/25 22:15:32;;;;;;;61.50;22.30;;;-12.20;1.00;;;;;;8328152;28;20190;-88
2021/12/25 22:19:33;;;;;;;60.30;20.93;;;-12.20;1.00;;;;;;8314998;28;20254;-88